Date,TemperatureHighF,TemperatureAvgF,TemperatureLowF,DewpointHighF,DewpointAvgF,DewpointLowF,HumidityHigh,HumidityAvg,HumidityLow,PressureMaxIn,PressureMinIn,WindSpeedMaxMPH,WindSpeedAvgMPH,GustSpeedMaxMPH,PrecipitationSumIn
2013-2-1,33.0,9.6,24.0,-99.9,-99.9,-99.9,0,0,100,30.08,29.60,19,13,29,0.00
2013-2-2,31.0,6.6,20.0,-99.9,-99.9,-99.9,0,0,100,30.24,30.03,15,8,23,0.00
2013-2-3,31.0,7.0,23.0,-99.9,-99.9,-99.9,0,0,100,30.04,29.71,13,7,20,0.00
2013-2-4,30.0,7.2,24.0,-99.9,-99.9,-99.9,0,0,100,29.94,29.71,20,10,30,0.00
2013-2-5,26.0,6.7,23.0,-99.9,-99.9,-99.9,0,0,100,30.00,29.90,8,4,10,0.00
2013-2-6,39.0,20.5,26.0,-99.9,-99.9,-99.9,0,0,100,30.27,29.88,17,8,26,0.00
2013-2-7,31.0,7.1,22.0,-99.9,-99.9,-99.9,0,0,100,30.50,30.27,12,6,17,0.00
2013-2-8,33.0,16.5,23.0,-99.9,-99.9,-99.9,0,0,100,30.45,29.43,40,15,59,0.00
2013-2-9,24.0,5.9,17.0,-99.9,-99.9,-99.9,0,0,100,30.17,29.43,32,20,49,0.00
2013-2-10,42.0,13.0,14.0,-99.9,-99.9,-99.9,0,0,100,30.37,30.16,15,-1,22,0.00
2013-2-11,46.0,28.9,23.0,-99.9,-99.9,-99.9,0,0,100,30.34,29.58,16,6,20,0.00
2013-2-12,44.0,40.6,35.0,-99.9,-99.9,-99.9,0,0,100,29.88,29.60,19,9,31,0.00
2013-2-13,40.0,35.5,32.0,-99.9,-99.9,-99.9,0,0,100,29.86,29.65,16,-1,21,0.00
2013-2-14,44.0,32.6,32.0,-99.9,-99.9,-99.9,0,0,100,29.98,29.67,13,7,18,0.00
2013-2-15,49.0,35.5,30.0,-99.9,-99.9,-99.9,0,0,100,30.00,29.90,15,6,21,0.00
2013-2-16,36.0,35.0,33.0,-99.9,-99.9,-99.9,0,0,100,29.92,29.63,17,-13,26,0.00
2013-2-17,33.0,7.1,18.0,-99.9,-99.9,-99.9,0,0,100,29.69,29.38,29,19,44,0.00
2013-2-18,31.0,6.3,16.0,-99.9,-99.9,-99.9,0,0,100,30.16,29.68,23,14,37,0.00
2013-2-19,48.0,29.3,25.0,-99.9,-99.9,-99.9,0,0,100,30.16,29.57,18,7,25,0.00
2013-2-20,44.0,28.0,27.0,-99.9,-99.9,-99.9,0,0,100,29.79,29.53,22,13,36,0.00
2013-2-21,34.0,11.7,26.0,-99.9,-99.9,-99.9,0,0,100,30.17,29.78,24,15,34,0.00
2013-2-22,38.0,24.2,27.0,-99.9,-99.9,-99.9,0,0,100,30.34,30.15,15,6,21,0.00
2013-2-23,38.0,34.7,33.0,-99.9,-99.9,-99.9,0,0,100,30.31,29.84,13,6,17,0.00
2013-2-24,38.0,35.7,32.0,-99.9,-99.9,-99.9,0,0,100,29.86,29.63,20,12,28,0.00
2013-2-25,40.0,34.6,32.0,-99.9,-99.9,-99.9,0,0,100,30.22,29.85,12,7,21,0.00
2013-2-26,42.0,38.3,35.0,-99.9,-99.9,-99.9,0,0,100,30.30,30.09,12,5,17,0.00
2013-2-27,44.0,41.4,37.0,-99.9,-99.9,-99.9,0,0,100,30.11,29.54,23,11,34,0.00
2013-2-28,46.0,40.3,36.0,-99.9,-99.9,-99.9,0,0,100,29.62,29.49,11,-3,15,0.00